EmpreSS Horn Blower — WAZ9629 — position and weather

sailwx.info

Track history (hours):
 
Tides and Currents Weather Stations Pressure Air Temp Water Temp Dewpoint Dewpoint Depression Visibility Wind Speed Wind Dir Waves Ship Positions

EmpreSS Horn Blower

Owner: HORNBLOWER DINING YACHTS, SAN FRANCISCO, CA. More information available from US FCC via Universal Licensing System and Coast Guard Vessel Documentation Center.

Last reported at 2017-Dec-11 04:52 UTC. Time now 2017-Dec-15 14:23 UTC.
Position N 37°52' W 122°19'.

Length 26 m; draft 2 m.

Type: Passenger vessel. MMSI: 366988170.

Date/timePositionNaut miles runAvg speedWind from/ knotsBaromVisibWave heightAir tempDewpointWater temp
2017-Dec-11 04:52N 37°52' W 122°19'0 1.3
2017-Dec-11 04:30N 37°52' W 122°19'3 6.5
2017-Dec-11 04:00N 37°51' W 122°23'3 5.2
2017-Dec-11 03:30N 37°48' W 122°23'1 2.4
2017-Dec-11 03:00N 37°48' W 122°22'3 6.9
2017-Dec-11 02:31N 37°51' W 122°21'2 3.1
2017-Dec-11 02:00N 37°52' W 122°19'0 0.0
2017-Dec-11 01:30N 37°52' W 122°19'0 0.0
2017-Dec-11 01:00N 37°52' W 122°19'0 0.0
2017-Dec-11 00:30N 37°52' W 122°19'0 0.0
2017-Dec-11 00:00N 37°52' W 122°19'0 0.0
2017-Dec-10 06:55N 37°52' W 122°19'0 0.0
2017-Dec-10 06:30N 37°52' W 122°19'0 0.1
2017-Dec-10 06:00N 37°52' W 122°19'3 6.6
2017-Dec-10 05:30N 37°51' W 122°23'2 4.4
2017-Dec-10 05:00N 37°50' W 122°25'3 6.7
2017-Dec-10 04:30N 37°47' W 122°23'2 4.3
2017-Dec-10 04:00N 37°49' W 122°21'3 6.2
2017-Dec-10 03:30N 37°52' W 122°20'1 1.8
2017-Dec-10 03:00N 37°52' W 122°19'0 0.0
2017-Dec-10 02:30N 37°52' W 122°19'0 0.0
2017-Dec-10 02:00N 37°52' W 122°19'0 0.0
2017-Dec-09 08:12N 37°52' W 122°19'0 0.0
2017-Dec-09 08:00N 37°52' W 122°19'1 1.3
2017-Dec-09 07:30N 37°52' W 122°20'3 5.6
2017-Dec-09 07:00N 37°49' W 122°22'2 4.8
2017-Dec-09 06:30N 37°47' W 122°23'3 5.4
2017-Dec-09 06:00N 37°49' W 122°26'2 3.6
2017-Dec-09 05:31N 37°49' W 122°28'4 7.6
2017-Dec-09 05:01N 37°51' W 122°23'3 5.8
2017-Dec-09 04:30N 37°52' W 122°20'1 1.7
2017-Dec-09 03:58N 37°52' W 122°19'0 0.0
2017-Dec-09 03:26N 37°52' W 122°19'0 0.0
2017-Dec-09 03:00N 37°52' W 122°19'0 0.0
2017-Dec-08 07:06N 37°52' W 122°19'0 0.5
2017-Dec-08 07:00N 37°52' W 122°19'3 6.4
2017-Dec-08 06:31N 37°50' W 122°22'3 5.5
2017-Dec-08 06:01N 37°48' W 122°24'0 0.5
2017-Dec-08 05:30N 37°48' W 122°24'2 3.6
2017-Dec-08 05:00N 37°49' W 122°25'2 4.6
2017-Dec-08 04:31N 37°50' W 122°22'2 3.8
2017-Dec-08 04:01N 37°48' W 122°22'1 2.6
2017-Dec-08 03:30N 37°47' W 122°23'1 1.6
2017-Dec-08 03:00N 37°48' W 122°24'0 0.0
2017-Dec-08 02:30N 37°48' W 122°24'3 5.8
2017-Dec-08 02:00N 37°50' W 122°22'3 6.1
2017-Dec-08 01:30N 37°52' W 122°19'0 0.0
2017-Dec-06 22:54N 37°52' W 122°19'0 1.2
2017-Dec-06 22:31N 37°52' W 122°19'3 6.0
2017-Dec-06 22:01N 37°51' W 122°23'2 3.8
2017-Dec-06 21:31N 37°49' W 122°23'3 5.2
2017-Dec-06 21:01N 37°51' W 122°21'  
2017-Dec-03 07:13N 37°52' W 122°19'0 0.0
2017-Dec-03 07:00N 37°52' W 122°19'1 1.8
2017-Dec-03 06:30N 37°52' W 122°20'4 7.9
2017-Dec-03 06:00N 37°50' W 122°25'3 6.0
2017-Dec-03 05:30N 37°49' W 122°28'2 4.1
2017-Dec-03 05:00N 37°49' W 122°25'2 4.5
2017-Dec-03 04:30N 37°48' W 122°23'3 5.2
2017-Dec-03 04:00N 37°50' W 122°22'2 4.7
2017-Dec-03 03:30N 37°52' W 122°20'1 1.3
2017-Dec-03 03:00N 37°52' W 122°19'0 0.0
2017-Dec-03 02:30N 37°52' W 122°19'0 0.0
2017-Dec-03 02:00N 37°52' W 122°19'0 0.0
2017-Dec-03 01:30N 37°52' W 122°19'  
Track history (hours):
 
Tides and Currents Weather Stations Pressure Air Temp Water Temp Dewpoint Dewpoint Depression Visibility Wind Speed Wind Dir Waves Ship Positions

EmpreSS Horn Blower

Owner: HORNBLOWER DINING YACHTS, SAN FRANCISCO, CA. More information available from US FCC via Universal Licensing System and Coast Guard Vessel Documentation Center.

Last reported at 2017-Dec-11 04:52 UTC. Time now 2017-Dec-15 14:23 UTC.
Position N 37°52' W 122°19'.

Length 26 m; draft 2 m.

Type: Passenger vessel. MMSI: 366988170.

Date/timePositionNaut miles runAvg speedWind from/ knotsBaromVisibWave heightAir tempDewpointWater temp
2017-Dec-11 04:52N 37°52' W 122°19'0 1.3
2017-Dec-11 04:30N 37°52' W 122°19'3 6.5
2017-Dec-11 04:00N 37°51' W 122°23'3 5.2
2017-Dec-11 03:30N 37°48' W 122°23'1 2.4
2017-Dec-11 03:00N 37°48' W 122°22'3 6.9
2017-Dec-11 02:31N 37°51' W 122°21'2 3.1
2017-Dec-11 02:00N 37°52' W 122°19'0 0.0
2017-Dec-11 01:30N 37°52' W 122°19'0 0.0
2017-Dec-11 01:00N 37°52' W 122°19'0 0.0
2017-Dec-11 00:30N 37°52' W 122°19'0 0.0
2017-Dec-11 00:00N 37°52' W 122°19'0 0.0
2017-Dec-10 06:55N 37°52' W 122°19'0 0.0
2017-Dec-10 06:30N 37°52' W 122°19'0 0.1
2017-Dec-10 06:00N 37°52' W 122°19'3 6.6
2017-Dec-10 05:30N 37°51' W 122°23'2 4.4
2017-Dec-10 05:00N 37°50' W 122°25'3 6.7
2017-Dec-10 04:30N 37°47' W 122°23'2 4.3
2017-Dec-10 04:00N 37°49' W 122°21'3 6.2
2017-Dec-10 03:30N 37°52' W 122°20'1 1.8
2017-Dec-10 03:00N 37°52' W 122°19'0 0.0
2017-Dec-10 02:30N 37°52' W 122°19'0 0.0
2017-Dec-10 02:00N 37°52' W 122°19'0 0.0
2017-Dec-09 08:12N 37°52' W 122°19'0 0.0
2017-Dec-09 08:00N 37°52' W 122°19'1 1.3
2017-Dec-09 07:30N 37°52' W 122°20'3 5.6
2017-Dec-09 07:00N 37°49' W 122°22'2 4.8
2017-Dec-09 06:30N 37°47' W 122°23'3 5.4
2017-Dec-09 06:00N 37°49' W 122°26'2 3.6
2017-Dec-09 05:31N 37°49' W 122°28'4 7.6
2017-Dec-09 05:01N 37°51' W 122°23'3 5.8
2017-Dec-09 04:30N 37°52' W 122°20'1 1.7
2017-Dec-09 03:58N 37°52' W 122°19'0 0.0
2017-Dec-09 03:26N 37°52' W 122°19'0 0.0
2017-Dec-09 03:00N 37°52' W 122°19'0 0.0
2017-Dec-08 07:06N 37°52' W 122°19'0 0.5
2017-Dec-08 07:00N 37°52' W 122°19'3 6.4
2017-Dec-08 06:31N 37°50' W 122°22'3 5.5
2017-Dec-08 06:01N 37°48' W 122°24'0 0.5
2017-Dec-08 05:30N 37°48' W 122°24'2 3.6
2017-Dec-08 05:00N 37°49' W 122°25'2 4.6
2017-Dec-08 04:31N 37°50' W 122°22'2 3.8
2017-Dec-08 04:01N 37°48' W 122°22'1 2.6
2017-Dec-08 03:30N 37°47' W 122°23'1 1.6
2017-Dec-08 03:00N 37°48' W 122°24'0 0.0
2017-Dec-08 02:30N 37°48' W 122°24'3 5.8
2017-Dec-08 02:00N 37°50' W 122°22'3 6.1
2017-Dec-08 01:30N 37°52' W 122°19'0 0.0
2017-Dec-06 22:54N 37°52' W 122°19'0 1.2
2017-Dec-06 22:31N 37°52' W 122°19'3 6.0
2017-Dec-06 22:01N 37°51' W 122°23'2 3.8
2017-Dec-06 21:31N 37°49' W 122°23'3 5.2
2017-Dec-06 21:01N 37°51' W 122°21'  
2017-Dec-03 07:13N 37°52' W 122°19'0 0.0
2017-Dec-03 07:00N 37°52' W 122°19'1 1.8
2017-Dec-03 06:30N 37°52' W 122°20'4 7.9
2017-Dec-03 06:00N 37°50' W 122°25'3 6.0
2017-Dec-03 05:30N 37°49' W 122°28'2 4.1
2017-Dec-03 05:00N 37°49' W 122°25'2 4.5
2017-Dec-03 04:30N 37°48' W 122°23'3 5.2
2017-Dec-03 04:00N 37°50' W 122°22'2 4.7
2017-Dec-03 03:30N 37°52' W 122°20'1 1.3
2017-Dec-03 03:00N 37°52' W 122°19'0 0.0
2017-Dec-03 02:30N 37°52' W 122°19'0 0.0
2017-Dec-03 02:00N 37°52' W 122°19'0 0.0
2017-Dec-03 01:30N 37°52' W 122°19'  

Dump ship's entire track history